sensor_id;sensor_type;location;lat;lon;timestamp;temperature;humidity
3186;DHT22;1604;53.700;10.252;2024-02-15T00:00:33;10.70;94.00
3186;DHT22;1604;53.700;10.252;2024-02-15T00:03:36;10.70;93.90
3186;DHT22;1604;53.700;10.252;2024-02-15T00:06:38;10.70;94.00
3186;DHT22;1604;53.700;10.252;2024-02-15T00:09:40;10.70;94.00
3186;DHT22;1604;53.700;10.252;2024-02-15T00:12:42;10.70;94.00
3186;DHT22;1604;53.700;10.252;2024-02-15T00:15:45;10.70;94.00
3186;DHT22;1604;53.700;10.252;2024-02-15T00:18:49;10.70;94.00
3186;DHT22;1604;53.700;10.252;2024-02-15T00:21:52;10.70;94.00
3186;DHT22;1604;53.700;10.252;2024-02-15T00:24:56;10.80;94.00
3186;DHT22;1604;53.700;10.252;2024-02-15T00:27:58;10.80;94.00
3186;DHT22;1604;53.700;10.252;2024-02-15T00:31:04;10.70;94.10
3186;DHT22;1604;53.700;10.252;2024-02-15T00:34:06;10.70;94.10
3186;DHT22;1604;53.700;10.252;2024-02-15T00:37:09;10.70;94.10
3186;DHT22;1604;53.700;10.252;2024-02-15T00:40:11;10.70;94.10
3186;DHT22;1604;53.700;10.252;2024-02-15T00:43:13;10.70;94.10
3186;DHT22;1604;53.700;10.252;2024-02-15T00:46:17;10.80;94.10
3186;DHT22;1604;53.700;10.252;2024-02-15T00:49:19;10.80;94.10
3186;DHT22;1604;53.700;10.252;2024-02-15T00:52:21;10.80;94.00
3186;DHT22;1604;53.700;10.252;2024-02-15T00:55:23;10.90;94.00
3186;DHT22;1604;53.700;10.252;2024-02-15T00:58:25;10.90;94.00
3186;DHT22;1604;53.700;10.252;2024-02-15T01:01:29;10.90;94.00
3186;DHT22;1604;53.700;10.252;2024-02-15T01:04:31;10.90;94.00
3186;DHT22;1604;53.700;10.252;2024-02-15T01:07:33;10.90;94.00
3186;DHT22;1604;53.700;10.252;2024-02-15T01:10:35;11.00;94.00
3186;DHT22;1604;53.700;10.252;2024-02-15T01:13:37;11.00;94.10
3186;DHT22;1604;53.700;10.252;2024-02-15T01:16:40;11.00;94.10
3186;DHT22;1604;53.700;10.252;2024-02-15T01:19:42;11.00;94.10
3186;DHT22;1604;53.700;10.252;2024-02-15T01:22:44;11.00;94.00
3186;DHT22;1604;53.700;10.252;2024-02-15T01:25:46;11.00;93.90
3186;DHT22;1604;53.700;10.252;2024-02-15T01:28:48;11.10;93.90
3186;DHT22;1604;53.700;10.252;2024-02-15T01:31:52;11.10;93.90
3186;DHT22;1604;53.700;10.252;2024-02-15T01:34:54;11.10;93.80
3186;DHT22;1604;53.700;10.252;2024-02-15T01:37:56;11.10;93.80
3186;DHT22;1604;53.700;10.252;2024-02-15T01:40:58;11.10;93.80
3186;DHT22;1604;53.700;10.252;2024-02-15T01:44:00;11.10;93.80
3186;DHT22;1604;53.700;10.252;2024-02-15T01:47:03;11.10;93.80
3186;DHT22;1604;53.700;10.252;2024-02-15T01:50:05;11.10;93.80
3186;DHT22;1604;53.700;10.252;2024-02-15T01:53:08;11.10;93.80
3186;DHT22;1604;53.700;10.252;2024-02-15T01:56:13;11.10;93.80
3186;DHT22;1604;53.700;10.252;2024-02-15T01:59:16;11.10;93.80
3186;DHT22;1604;53.700;10.252;2024-02-15T02:02:20;11.10;93.80
3186;DHT22;1604;53.700;10.252;2024-02-15T02:05:24;11.10;93.80
3186;DHT22;1604;53.700;10.252;2024-02-15T02:08:26;11.10;93.90
3186;DHT22;1604;53.700;10.252;2024-02-15T02:11:28;11.10;93.90
3186;DHT22;1604;53.700;10.252;2024-02-15T02:14:31;11.10;93.90
3186;DHT22;1604;53.700;10.252;2024-02-15T02:17:34;11.10;93.90
3186;DHT22;1604;53.700;10.252;2024-02-15T02:20:36;11.10;93.90
3186;DHT22;1604;53.700;10.252;2024-02-15T02:23:38;11.10;93.90
3186;DHT22;1604;53.700;10.252;2024-02-15T02:26:42;11.10;93.90
3186;DHT22;1604;53.700;10.252;2024-02-15T02:29:44;11.00;93.90
3186;DHT22;1604;53.700;10.252;2024-02-15T02:32:47;11.10;93.90
3186;DHT22;1604;53.700;10.252;2024-02-15T02:35:49;11.10;93.90
3186;DHT22;1604;53.700;10.252;2024-02-15T02:38:50;11.10;93.90
3186;DHT22;1604;53.700;10.252;2024-02-15T02:41:54;11.10;93.90
3186;DHT22;1604;53.700;10.252;2024-02-15T02:44:56;11.10;93.90
3186;DHT22;1604;53.700;10.252;2024-02-15T02:47:58;11.10;93.90
3186;DHT22;1604;53.700;10.252;2024-02-15T02:50:59;11.10;93.90
3186;DHT22;1604;53.700;10.252;2024-02-15T02:54:01;11.10;93.90
3186;DHT22;1604;53.700;10.252;2024-02-15T02:57:08;11.10;93.90
3186;DHT22;1604;53.700;10.252;2024-02-15T03:00:11;11.10;93.80
3186;DHT22;1604;53.700;10.252;2024-02-15T03:03:16;11.10;93.80
3186;DHT22;1604;53.700;10.252;2024-02-15T03:06:19;11.10;93.80
3186;DHT22;1604;53.700;10.252;2024-02-15T03:09:21;11.10;93.80
3186;DHT22;1604;53.700;10.252;2024-02-15T03:12:24;11.10;93.80
3186;DHT22;1604;53.700;10.252;2024-02-15T03:15:27;11.20;93.80
3186;DHT22;1604;53.700;10.252;2024-02-15T03:18:29;11.10;93.70
3186;DHT22;1604;53.700;10.252;2024-02-15T03:21:32;11.20;93.70
3186;DHT22;1604;53.700;10.252;2024-02-15T03:24:34;11.20;93.70
3186;DHT22;1604;53.700;10.252;2024-02-15T03:27:38;11.20;93.70
3186;DHT22;1604;53.700;10.252;2024-02-15T03:30:39;11.10;93.70
3186;DHT22;1604;53.700;10.252;2024-02-15T03:33:41;11.10;93.80
3186;DHT22;1604;53.700;10.252;2024-02-15T03:36:43;11.10;93.70
3186;DHT22;1604;53.700;10.252;2024-02-15T03:39:46;11.20;93.70
3186;DHT22;1604;53.700;10.252;2024-02-15T03:42:49;11.20;93.70
3186;DHT22;1604;53.700;10.252;2024-02-15T03:45:51;11.20;93.70
3186;DHT22;1604;53.700;10.252;2024-02-15T03:48:53;11.20;93.70
3186;DHT22;1604;53.700;10.252;2024-02-15T03:51:57;11.20;93.60
3186;DHT22;1604;53.700;10.252;2024-02-15T03:55:00;11.20;93.60
3186;DHT22;1604;53.700;10.252;2024-02-15T03:58:04;11.20;93.60
3186;DHT22;1604;53.700;10.252;2024-02-15T04:01:05;11.20;93.60
3186;DHT22;1604;53.700;10.252;2024-02-15T04:04:10;11.20;93.60
3186;DHT22;1604;53.700;10.252;2024-02-15T04:07:13;11.20;93.60
3186;DHT22;1604;53.700;10.252;2024-02-15T04:10:16;11.30;93.50
3186;DHT22;1604;53.700;10.252;2024-02-15T04:13:20;11.20;93.50
3186;DHT22;1604;53.700;10.252;2024-02-15T04:16:22;11.20;93.50
3186;DHT22;1604;53.700;10.252;2024-02-15T04:19:26;11.20;93.60
3186;DHT22;1604;53.700;10.252;2024-02-15T04:22:27;11.20;93.60
3186;DHT22;1604;53.700;10.252;2024-02-15T04:25:29;11.30;93.50
3186;DHT22;1604;53.700;10.252;2024-02-15T04:28:33;11.30;93.50
3186;DHT22;1604;53.700;10.252;2024-02-15T04:31:35;11.30;93.50
3186;DHT22;1604;53.700;10.252;2024-02-15T04:34:40;11.20;93.50
3186;DHT22;1604;53.700;10.252;2024-02-15T04:37:42;11.30;93.50
3186;DHT22;1604;53.700;10.252;2024-02-15T04:40:43;11.30;93.50
3186;DHT22;1604;53.700;10.252;2024-02-15T04:43:47;11.30;93.50
3186;DHT22;1604;53.700;10.252;2024-02-15T04:46:49;11.30;93.50
3186;DHT22;1604;53.700;10.252;2024-02-15T04:49:51;11.30;93.50
3186;DHT22;1604;53.700;10.252;2024-02-15T04:52:53;11.30;93.50
3186;DHT22;1604;53.700;10.252;2024-02-15T04:55:55;11.30;93.50
3186;DHT22;1604;53.700;10.252;2024-02-15T04:58:58;11.30;93.50
3186;DHT22;1604;53.700;10.252;2024-02-15T05:02:00;11.30;93.50
3186;DHT22;1604;53.700;10.252;2024-02-15T05:05:03;11.30;93.50
3186;DHT22;1604;53.700;10.252;2024-02-15T05:08:05;11.30;93.50
3186;DHT22;1604;53.700;10.252;2024-02-15T05:11:09;11.30;93.50
3186;DHT22;1604;53.700;10.252;2024-02-15T05:14:19;11.30;93.50
3186;DHT22;1604;53.700;10.252;2024-02-15T05:17:21;11.30;93.50
3186;DHT22;1604;53.700;10.252;2024-02-15T05:20:23;11.30;93.40
3186;DHT22;1604;53.700;10.252;2024-02-15T05:23:25;11.20;93.50
3186;DHT22;1604;53.700;10.252;2024-02-15T05:26:27;11.30;93.50
3186;DHT22;1604;53.700;10.252;2024-02-15T05:29:31;11.30;93.50
3186;DHT22;1604;53.700;10.252;2024-02-15T05:32:34;11.30;93.50
3186;DHT22;1604;53.700;10.252;2024-02-15T05:35:41;11.30;93.50
3186;DHT22;1604;53.700;10.252;2024-02-15T05:38:48;11.30;93.50
3186;DHT22;1604;53.700;10.252;2024-02-15T05:41:49;11.30;93.50
3186;DHT22;1604;53.700;10.252;2024-02-15T05:44:53;11.30;93.50
3186;DHT22;1604;53.700;10.252;2024-02-15T05:47:55;11.30;93.50
3186;DHT22;1604;53.700;10.252;2024-02-15T05:50:57;11.30;93.50
3186;DHT22;1604;53.700;10.252;2024-02-15T05:54:00;11.30;93.50
3186;DHT22;1604;53.700;10.252;2024-02-15T05:57:02;11.30;93.50
3186;DHT22;1604;53.700;10.252;2024-02-15T06:00:07;11.30;93.50
3186;DHT22;1604;53.700;10.252;2024-02-15T06:03:09;11.30;93.50
3186;DHT22;1604;53.700;10.252;2024-02-15T06:06:11;11.30;93.50
3186;DHT22;1604;53.700;10.252;2024-02-15T06:09:13;11.30;93.50
3186;DHT22;1604;53.700;10.252;2024-02-15T06:12:15;11.30;93.50
3186;DHT22;1604;53.700;10.252;2024-02-15T06:15:18;11.30;93.50
3186;DHT22;1604;53.700;10.252;2024-02-15T06:18:21;11.30;93.50
3186;DHT22;1604;53.700;10.252;2024-02-15T06:21:25;11.30;93.50
3186;DHT22;1604;53.700;10.252;2024-02-15T06:24:28;11.30;93.50
3186;DHT22;1604;53.700;10.252;2024-02-15T06:27:30;11.30;93.50
3186;DHT22;1604;53.700;10.252;2024-02-15T06:30:34;11.30;93.50
3186;DHT22;1604;53.700;10.252;2024-02-15T06:33:54;11.40;93.40
3186;DHT22;1604;53.700;10.252;2024-02-15T06:37:35;11.30;93.40
3186;DHT22;1604;53.700;10.252;2024-02-15T06:40:54;11.40;93.40
3186;DHT22;1604;53.700;10.252;2024-02-15T06:43:56;11.40;93.40
3186;DHT22;1604;53.700;10.252;2024-02-15T06:47:01;11.40;93.30
3186;DHT22;1604;53.700;10.252;2024-02-15T06:50:03;11.40;93.30
3186;DHT22;1604;53.700;10.252;2024-02-15T06:53:05;11.40;93.30
3186;DHT22;1604;53.700;10.252;2024-02-15T06:56:08;11.40;93.20
3186;DHT22;1604;53.700;10.252;2024-02-15T06:59:11;11.40;93.20
3186;DHT22;1604;53.700;10.252;2024-02-15T07:02:15;11.40;93.20
3186;DHT22;1604;53.700;10.252;2024-02-15T07:05:17;11.40;93.20
3186;DHT22;1604;53.700;10.252;2024-02-15T07:08:19;11.40;93.20
3186;DHT22;1604;53.700;10.252;2024-02-15T07:11:21;11.40;93.20
3186;DHT22;1604;53.700;10.252;2024-02-15T07:14:23;11.40;93.20
3186;DHT22;1604;53.700;10.252;2024-02-15T07:17:27;11.40;93.20
3186;DHT22;1604;53.700;10.252;2024-02-15T07:20:29;11.40;93.20
3186;DHT22;1604;53.700;10.252;2024-02-15T07:23:31;11.40;93.20
3186;DHT22;1604;53.700;10.252;2024-02-15T07:26:33;11.40;93.20
3186;DHT22;1604;53.700;10.252;2024-02-15T07:29:36;11.40;93.20
3186;DHT22;1604;53.700;10.252;2024-02-15T07:32:40;11.40;93.20
3186;DHT22;1604;53.700;10.252;2024-02-15T07:35:42;11.40;93.20
3186;DHT22;1604;53.700;10.252;2024-02-15T07:38:44;11.40;93.20
3186;DHT22;1604;53.700;10.252;2024-02-15T07:41:49;11.40;93.20
3186;DHT22;1604;53.700;10.252;2024-02-15T07:44:51;11.40;93.20
3186;DHT22;1604;53.700;10.252;2024-02-15T07:47:55;11.40;93.20
3186;DHT22;1604;53.700;10.252;2024-02-15T07:50:57;11.50;93.20
3186;DHT22;1604;53.700;10.252;2024-02-15T07:53:59;11.50;93.20
3186;DHT22;1604;53.700;10.252;2024-02-15T07:57:01;11.50;93.00
3186;DHT22;1604;53.700;10.252;2024-02-15T08:00:05;11.50;93.00
3186;DHT22;1604;53.700;10.252;2024-02-15T08:03:13;11.50;93.00
3186;DHT22;1604;53.700;10.252;2024-02-15T08:06:16;11.50;93.00
3186;DHT22;1604;53.700;10.252;2024-02-15T08:09:18;11.50;93.00
3186;DHT22;1604;53.700;10.252;2024-02-15T08:12:22;11.50;93.00
3186;DHT22;1604;53.700;10.252;2024-02-15T08:15:25;11.50;93.00
3186;DHT22;1604;53.700;10.252;2024-02-15T08:18:29;11.60;92.90
3186;DHT22;1604;53.700;10.252;2024-02-15T08:21:32;11.60;92.80
3186;DHT22;1604;53.700;10.252;2024-02-15T08:24:34;11.60;92.80
3186;DHT22;1604;53.700;10.252;2024-02-15T08:27:37;11.60;92.80
3186;DHT22;1604;53.700;10.252;2024-02-15T08:30:43;11.60;92.80
3186;DHT22;1604;53.700;10.252;2024-02-15T08:33:46;11.60;92.80
3186;DHT22;1604;53.700;10.252;2024-02-15T08:36:48;11.60;92.80
3186;DHT22;1604;53.700;10.252;2024-02-15T08:39:50;11.60;92.80
3186;DHT22;1604;53.700;10.252;2024-02-15T08:42:53;11.60;92.80
3186;DHT22;1604;53.700;10.252;2024-02-15T08:45:56;11.60;92.80
3186;DHT22;1604;53.700;10.252;2024-02-15T08:48:59;11.60;92.80
3186;DHT22;1604;53.700;10.252;2024-02-15T08:52:04;11.60;92.80
3186;DHT22;1604;53.700;10.252;2024-02-15T08:55:07;11.60;92.80
3186;DHT22;1604;53.700;10.252;2024-02-15T08:58:10;11.70;92.80
3186;DHT22;1604;53.700;10.252;2024-02-15T09:01:12;11.70;92.80
3186;DHT22;1604;53.700;10.252;2024-02-15T09:04:16;11.70;92.80
3186;DHT22;1604;53.700;10.252;2024-02-15T09:07:18;11.70;92.80
3186;DHT22;1604;53.700;10.252;2024-02-15T09:10:21;11.70;92.70
3186;DHT22;1604;53.700;10.252;2024-02-15T09:13:24;11.70;92.70
3186;DHT22;1604;53.700;10.252;2024-02-15T09:16:26;11.80;92.70
3186;DHT22;1604;53.700;10.252;2024-02-15T09:19:29;11.80;92.70
3186;DHT22;1604;53.700;10.252;2024-02-15T09:22:32;11.80;92.70
3186;DHT22;1604;53.700;10.252;2024-02-15T09:25:38;11.80;92.70
3186;DHT22;1604;53.700;10.252;2024-02-15T09:28:40;11.90;92.70
3186;DHT22;1604;53.700;10.252;2024-02-15T09:31:42;11.90;92.70
3186;DHT22;1604;53.700;10.252;2024-02-15T09:34:45;11.90;92.50
3186;DHT22;1604;53.700;10.252;2024-02-15T09:37:48;12.00;92.50
3186;DHT22;1604;53.700;10.252;2024-02-15T09:40:50;12.10;92.50
3186;DHT22;1604;53.700;10.252;2024-02-15T09:43:52;12.10;92.50
3186;DHT22;1604;53.700;10.252;2024-02-15T09:47:02;12.20;92.40
3186;DHT22;1604;53.700;10.252;2024-02-15T09:50:07;12.20;92.40
3186;DHT22;1604;53.700;10.252;2024-02-15T09:53:12;12.20;92.40
3186;DHT22;1604;53.700;10.252;2024-02-15T09:56:15;12.20;92.40
3186;DHT22;1604;53.700;10.252;2024-02-15T09:59:19;12.30;92.40
3186;DHT22;1604;53.700;10.252;2024-02-15T10:02:21;12.30;92.40
3186;DHT22;1604;53.700;10.252;2024-02-15T10:05:24;12.30;92.30
3186;DHT22;1604;53.700;10.252;2024-02-15T10:08:26;12.40;92.30
3186;DHT22;1604;53.700;10.252;2024-02-15T10:11:28;12.40;92.40
3186;DHT22;1604;53.700;10.252;2024-02-15T10:14:30;12.40;92.40
3186;DHT22;1604;53.700;10.252;2024-02-15T10:17:33;12.40;92.40
3186;DHT22;1604;53.700;10.252;2024-02-15T10:20:38;12.50;92.40
3186;DHT22;1604;53.700;10.252;2024-02-15T10:23:41;12.50;92.50
3186;DHT22;1604;53.700;10.252;2024-02-15T10:26:43;12.40;92.50
3186;DHT22;1604;53.700;10.252;2024-02-15T10:29:48;12.50;92.50
3186;DHT22;1604;53.700;10.252;2024-02-15T10:32:50;12.50;92.50
3186;DHT22;1604;53.700;10.252;2024-02-15T10:36:05;12.50;92.60
3186;DHT22;1604;53.700;10.252;2024-02-15T10:39:11;12.60;92.70
3186;DHT22;1604;53.700;10.252;2024-02-15T10:42:17;12.60;92.70
3186;DHT22;1604;53.700;10.252;2024-02-15T10:45:20;12.60;92.70
3186;DHT22;1604;53.700;10.252;2024-02-15T10:48:22;12.60;92.60
3186;DHT22;1604;53.700;10.252;2024-02-15T10:51:26;12.60;92.60
3186;DHT22;1604;53.700;10.252;2024-02-15T10:54:41;12.60;92.70
3186;DHT22;1604;53.700;10.252;2024-02-15T10:57:46;12.60;92.60
3186;DHT22;1604;53.700;10.252;2024-02-15T11:00:50;12.60;92.60
3186;DHT22;1604;53.700;10.252;2024-02-15T11:03:59;12.60;92.50
3186;DHT22;1604;53.700;10.252;2024-02-15T11:07:04;12.60;92.50
3186;DHT22;1604;53.700;10.252;2024-02-15T11:10:08;12.70;92.50
3186;DHT22;1604;53.700;10.252;2024-02-15T11:13:11;12.70;92.50
3186;DHT22;1604;53.700;10.252;2024-02-15T11:16:38;12.70;92.60
3186;DHT22;1604;53.700;10.252;2024-02-15T11:19:42;12.70;92.60
3186;DHT22;1604;53.700;10.252;2024-02-15T11:22:56;12.70;92.60
3186;DHT22;1604;53.700;10.252;2024-02-15T11:25:58;12.70;92.50
3186;DHT22;1604;53.700;10.252;2024-02-15T11:29:01;12.80;92.40
3186;DHT22;1604;53.700;10.252;2024-02-15T11:32:04;12.80;92.30
3186;DHT22;1604;53.700;10.252;2024-02-15T11:35:07;12.90;92.40
3186;DHT22;1604;53.700;10.252;2024-02-15T11:38:29;12.90;92.40
3186;DHT22;1604;53.700;10.252;2024-02-15T11:41:31;12.90;92.40
3186;DHT22;1604;53.700;10.252;2024-02-15T11:44:33;13.00;92.60
3186;DHT22;1604;53.700;10.252;2024-02-15T11:47:37;13.00;92.60
3186;DHT22;1604;53.700;10.252;2024-02-15T11:50:40;12.90;92.60
3186;DHT22;1604;53.700;10.252;2024-02-15T11:53:43;12.90;92.70
3186;DHT22;1604;53.700;10.252;2024-02-15T11:56:50;12.90;92.70
3186;DHT22;1604;53.700;10.252;2024-02-15T11:59:54;13.00;92.70
3186;DHT22;1604;53.700;10.252;2024-02-15T12:03:13;13.00;92.90
3186;DHT22;1604;53.700;10.252;2024-02-15T12:06:32;13.00;93.00
3186;DHT22;1604;53.700;10.252;2024-02-15T12:09:49;12.90;92.90
3186;DHT22;1604;53.700;10.252;2024-02-15T12:13:08;12.90;92.90
3186;DHT22;1604;53.700;10.252;2024-02-15T12:16:28;12.90;92.90
3186;DHT22;1604;53.700;10.252;2024-02-15T12:19:47;12.90;93.00
3186;DHT22;1604;53.700;10.252;2024-02-15T12:22:51;12.90;93.00
3186;DHT22;1604;53.700;10.252;2024-02-15T12:25:55;12.90;93.00
3186;DHT22;1604;53.700;10.252;2024-02-15T12:28:56;12.90;93.00
3186;DHT22;1604;53.700;10.252;2024-02-15T12:31:59;12.90;93.00
3186;DHT22;1604;53.700;10.252;2024-02-15T12:35:11;12.80;93.10
3186;DHT22;1604;53.700;10.252;2024-02-15T12:38:16;12.80;93.00
3186;DHT22;1604;53.700;10.252;2024-02-15T12:41:21;12.80;92.90
3186;DHT22;1604;53.700;10.252;2024-02-15T12:44:23;12.80;92.90
3186;DHT22;1604;53.700;10.252;2024-02-15T12:47:27;12.80;92.80
3186;DHT22;1604;53.700;10.252;2024-02-15T12:50:30;12.80;92.90
3186;DHT22;1604;53.700;10.252;2024-02-15T12:53:32;12.80;92.90
3186;DHT22;1604;53.700;10.252;2024-02-15T12:56:35;12.80;92.90
3186;DHT22;1604;53.700;10.252;2024-02-15T12:59:38;12.80;92.80
3186;DHT22;1604;53.700;10.252;2024-02-15T13:02:40;12.70;92.80
3186;DHT22;1604;53.700;10.252;2024-02-15T13:05:42;12.70;92.80
3186;DHT22;1604;53.700;10.252;2024-02-15T13:08:44;12.70;92.70
3186;DHT22;1604;53.700;10.252;2024-02-15T13:11:50;12.70;92.70
3186;DHT22;1604;53.700;10.252;2024-02-15T13:14:54;12.70;92.60
3186;DHT22;1604;53.700;10.252;2024-02-15T13:17:56;12.70;92.60
3186;DHT22;1604;53.700;10.252;2024-02-15T13:20:58;12.70;92.60
3186;DHT22;1604;53.700;10.252;2024-02-15T13:24:00;12.70;92.60
3186;DHT22;1604;53.700;10.252;2024-02-15T13:27:06;12.70;92.60
3186;DHT22;1604;53.700;10.252;2024-02-15T13:30:10;12.70;92.60
3186;DHT22;1604;53.700;10.252;2024-02-15T13:33:13;12.70;92.70
3186;DHT22;1604;53.700;10.252;2024-02-15T13:36:17;12.70;92.70
3186;DHT22;1604;53.700;10.252;2024-02-15T13:39:20;12.70;92.70
3186;DHT22;1604;53.700;10.252;2024-02-15T13:42:23;12.70;92.60
3186;DHT22;1604;53.700;10.252;2024-02-15T13:45:28;12.60;92.60
3186;DHT22;1604;53.700;10.252;2024-02-15T13:48:33;12.60;92.60
3186;DHT22;1604;53.700;10.252;2024-02-15T13:51:34;12.60;92.60
3186;DHT22;1604;53.700;10.252;2024-02-15T13:54:37;12.60;92.60
3186;DHT22;1604;53.700;10.252;2024-02-15T13:57:42;12.60;92.60
3186;DHT22;1604;53.700;10.252;2024-02-15T14:00:44;12.60;92.70
3186;DHT22;1604;53.700;10.252;2024-02-15T14:03:45;12.60;92.60
3186;DHT22;1604;53.700;10.252;2024-02-15T14:06:47;12.50;92.60
3186;DHT22;1604;53.700;10.252;2024-02-15T14:09:49;12.50;92.60
3186;DHT22;1604;53.700;10.252;2024-02-15T14:12:53;12.50;92.60
3186;DHT22;1604;53.700;10.252;2024-02-15T14:15:58;12.50;92.60
3186;DHT22;1604;53.700;10.252;2024-02-15T14:19:01;12.50;92.60
3186;DHT22;1604;53.700;10.252;2024-02-15T14:22:04;12.50;92.60
3186;DHT22;1604;53.700;10.252;2024-02-15T14:25:09;12.50;92.60
3186;DHT22;1604;53.700;10.252;2024-02-15T14:28:13;12.50;92.60
3186;DHT22;1604;53.700;10.252;2024-02-15T14:31:18;12.40;92.60
3186;DHT22;1604;53.700;10.252;2024-02-15T14:34:37;12.40;92.60
3186;DHT22;1604;53.700;10.252;2024-02-15T14:37:41;12.40;92.60
3186;DHT22;1604;53.700;10.252;2024-02-15T14:40:45;12.40;92.60
3186;DHT22;1604;53.700;10.252;2024-02-15T14:43:52;12.50;92.60
3186;DHT22;1604;53.700;10.252;2024-02-15T14:46:55;12.40;92.70
3186;DHT22;1604;53.700;10.252;2024-02-15T14:49:57;12.40;92.70
3186;DHT22;1604;53.700;10.252;2024-02-15T14:53:00;12.40;92.60
3186;DHT22;1604;53.700;10.252;2024-02-15T14:56:02;12.40;92.60
3186;DHT22;1604;53.700;10.252;2024-02-15T14:59:06;12.40;92.50
3186;DHT22;1604;53.700;10.252;2024-02-15T15:02:09;12.50;92.60
3186;DHT22;1604;53.700;10.252;2024-02-15T15:05:11;12.40;92.60
3186;DHT22;1604;53.700;10.252;2024-02-15T15:08:26;12.40;92.60
3186;DHT22;1604;53.700;10.252;2024-02-15T15:11:46;12.40;92.60
3186;DHT22;1604;53.700;10.252;2024-02-15T15:15:07;12.40;92.60
3186;DHT22;1604;53.700;10.252;2024-02-15T15:18:13;12.40;92.60
3186;DHT22;1604;53.700;10.252;2024-02-15T15:21:16;12.40;92.60
3186;DHT22;1604;53.700;10.252;2024-02-15T15:24:17;12.40;92.50
3186;DHT22;1604;53.700;10.252;2024-02-15T15:27:19;12.40;92.60
3186;DHT22;1604;53.700;10.252;2024-02-15T15:30:23;12.40;92.60
3186;DHT22;1604;53.700;10.252;2024-02-15T15:33:25;12.40;92.60
3186;DHT22;1604;53.700;10.252;2024-02-15T15:36:27;12.40;92.60
3186;DHT22;1604;53.700;10.252;2024-02-15T15:39:29;12.40;92.60
3186;DHT22;1604;53.700;10.252;2024-02-15T15:42:35;12.30;92.60
3186;DHT22;1604;53.700;10.252;2024-02-15T15:45:39;12.40;92.60
3186;DHT22;1604;53.700;10.252;2024-02-15T15:48:42;12.40;92.60
3186;DHT22;1604;53.700;10.252;2024-02-15T15:51:45;12.30;92.60
3186;DHT22;1604;53.700;10.252;2024-02-15T15:54:47;12.30;92.60
3186;DHT22;1604;53.700;10.252;2024-02-15T15:57:49;12.30;92.60
3186;DHT22;1604;53.700;10.252;2024-02-15T16:00:52;12.30;92.60
3186;DHT22;1604;53.700;10.252;2024-02-15T16:03:54;12.30;92.60
3186;DHT22;1604;53.700;10.252;2024-02-15T16:06:56;12.30;92.60
3186;DHT22;1604;53.700;10.252;2024-02-15T16:09:58;12.30;92.60
3186;DHT22;1604;53.700;10.252;2024-02-15T16:13:00;12.30;92.60
3186;DHT22;1604;53.700;10.252;2024-02-15T16:16:04;12.30;92.50
3186;DHT22;1604;53.700;10.252;2024-02-15T16:19:06;12.20;92.50
3186;DHT22;1604;53.700;10.252;2024-02-15T16:22:09;12.20;92.50
3186;DHT22;1604;53.700;10.252;2024-02-15T16:25:11;12.30;92.60
3186;DHT22;1604;53.700;10.252;2024-02-15T16:28:14;12.20;92.60
3186;DHT22;1604;53.700;10.252;2024-02-15T16:31:17;12.20;92.60
3186;DHT22;1604;53.700;10.252;2024-02-15T16:34:19;12.20;92.60
3186;DHT22;1604;53.700;10.252;2024-02-15T16:37:21;12.10;92.60
3186;DHT22;1604;53.700;10.252;2024-02-15T16:40:23;12.10;92.60
3186;DHT22;1604;53.700;10.252;2024-02-15T16:43:28;12.20;92.60
3186;DHT22;1604;53.700;10.252;2024-02-15T16:46:31;12.10;92.60
3186;DHT22;1604;53.700;10.252;2024-02-15T16:49:34;12.10;92.60
3186;DHT22;1604;53.700;10.252;2024-02-15T16:52:37;12.10;92.60
3186;DHT22;1604;53.700;10.252;2024-02-15T16:55:39;12.20;92.60
3186;DHT22;1604;53.700;10.252;2024-02-15T16:58:42;12.20;92.60
3186;DHT22;1604;53.700;10.252;2024-02-15T17:01:45;12.20;92.60
3186;DHT22;1604;53.700;10.252;2024-02-15T17:04:48;12.20;92.60
3186;DHT22;1604;53.700;10.252;2024-02-15T17:07:50;12.10;92.60
3186;DHT22;1604;53.700;10.252;2024-02-15T17:10:54;12.10;92.60
3186;DHT22;1604;53.700;10.252;2024-02-15T17:13:57;12.10;92.60
3186;DHT22;1604;53.700;10.252;2024-02-15T17:17:03;12.10;92.60
3186;DHT22;1604;53.700;10.252;2024-02-15T17:20:05;12.10;92.60
3186;DHT22;1604;53.700;10.252;2024-02-15T17:23:15;12.10;92.60
3186;DHT22;1604;53.700;10.252;2024-02-15T17:26:16;12.10;92.60
3186;DHT22;1604;53.700;10.252;2024-02-15T17:29:19;12.10;92.60
3186;DHT22;1604;53.700;10.252;2024-02-15T17:32:23;12.10;92.60
3186;DHT22;1604;53.700;10.252;2024-02-15T17:35:25;12.20;92.60
3186;DHT22;1604;53.700;10.252;2024-02-15T17:38:27;12.20;92.60
3186;DHT22;1604;53.700;10.252;2024-02-15T17:41:29;12.20;92.60
3186;DHT22;1604;53.700;10.252;2024-02-15T17:44:32;12.20;92.60
3186;DHT22;1604;53.700;10.252;2024-02-15T17:47:35;12.20;92.60
3186;DHT22;1604;53.700;10.252;2024-02-15T17:50:37;12.20;92.60
3186;DHT22;1604;53.700;10.252;2024-02-15T17:53:39;12.20;92.60
3186;DHT22;1604;53.700;10.252;2024-02-15T17:56:42;12.20;92.60
3186;DHT22;1604;53.700;10.252;2024-02-15T17:59:44;12.20;92.60
3186;DHT22;1604;53.700;10.252;2024-02-15T18:02:47;12.20;92.60
3186;DHT22;1604;53.700;10.252;2024-02-15T18:05:49;12.20;92.60
3186;DHT22;1604;53.700;10.252;2024-02-15T18:08:51;12.20;92.70
3186;DHT22;1604;53.700;10.252;2024-02-15T18:11:53;12.20;92.60
3186;DHT22;1604;53.700;10.252;2024-02-15T18:14:55;12.20;92.60
3186;DHT22;1604;53.700;10.252;2024-02-15T18:17:58;12.20;92.60
3186;DHT22;1604;53.700;10.252;2024-02-15T18:21:00;12.20;92.60
3186;DHT22;1604;53.700;10.252;2024-02-15T18:24:03;12.20;92.70
3186;DHT22;1604;53.700;10.252;2024-02-15T18:27:06;12.10;92.60
3186;DHT22;1604;53.700;10.252;2024-02-15T18:30:10;12.10;92.60
3186;DHT22;1604;53.700;10.252;2024-02-15T18:33:14;12.10;92.60
3186;DHT22;1604;53.700;10.252;2024-02-15T18:36:16;12.10;92.60
3186;DHT22;1604;53.700;10.252;2024-02-15T18:39:19;12.10;92.60
3186;DHT22;1604;53.700;10.252;2024-02-15T18:42:21;12.10;92.60
3186;DHT22;1604;53.700;10.252;2024-02-15T18:45:25;12.10;92.60
3186;DHT22;1604;53.700;10.252;2024-02-15T18:48:30;12.10;92.60
3186;DHT22;1604;53.700;10.252;2024-02-15T18:51:32;12.10;92.60
3186;DHT22;1604;53.700;10.252;2024-02-15T18:54:38;12.10;92.60
3186;DHT22;1604;53.700;10.252;2024-02-15T18:57:41;12.10;92.60
3186;DHT22;1604;53.700;10.252;2024-02-15T19:00:44;12.10;92.60
3186;DHT22;1604;53.700;10.252;2024-02-15T19:03:48;12.10;92.60
3186;DHT22;1604;53.700;10.252;2024-02-15T19:06:50;12.10;92.60
3186;DHT22;1604;53.700;10.252;2024-02-15T19:09:52;12.10;92.60
3186;DHT22;1604;53.700;10.252;2024-02-15T19:12:54;12.10;92.60
3186;DHT22;1604;53.700;10.252;2024-02-15T19:15:56;12.10;92.60
3186;DHT22;1604;53.700;10.252;2024-02-15T19:19:00;12.10;92.70
3186;DHT22;1604;53.700;10.252;2024-02-15T19:22:04;12.00;92.70
3186;DHT22;1604;53.700;10.252;2024-02-15T19:25:07;12.00;92.70
3186;DHT22;1604;53.700;10.252;2024-02-15T19:28:15;12.00;92.70
3186;DHT22;1604;53.700;10.252;2024-02-15T19:31:17;12.00;92.70
3186;DHT22;1604;53.700;10.252;2024-02-15T19:34:21;12.00;92.70
3186;DHT22;1604;53.700;10.252;2024-02-15T19:37:27;12.00;92.70